createdAt,value
2023-02-21T00:02:35.916Z,10.93
2023-02-21T00:05:21.867Z,11.50
2023-02-21T00:08:06.787Z,10.23
2023-02-21T00:10:51.579Z,12.43
2023-02-21T00:13:36.582Z,11.48
2023-02-21T00:16:21.643Z,11.30
2023-02-21T00:19:06.747Z,10.73
2023-02-21T00:21:51.627Z,11.80
2023-02-21T00:24:37.570Z,11.93
2023-02-21T00:27:23.272Z,13.35
2023-02-21T00:30:09.773Z,10.15
2023-02-21T00:32:55.086Z,11.93
2023-02-21T00:35:40.226Z,12.48
2023-02-21T00:38:26.568Z,10.73
2023-02-21T00:41:12.241Z,12.50
2023-02-21T00:43:58.091Z,13.32
2023-02-21T00:46:43.315Z,11.95
2023-02-21T00:49:28.144Z,11.82
2023-02-21T00:52:13.542Z,12.48
2023-02-21T00:54:58.401Z,13.95
2023-02-21T00:57:43.497Z,14.23
2023-02-21T01:00:35.579Z,12.90
2023-02-21T01:03:21.037Z,12.35
2023-02-21T01:06:06.090Z,11.05
2023-02-21T01:08:51.177Z,14.70
2023-02-21T01:11:38.369Z,11.90
2023-02-21T01:14:26.840Z,13.52
2023-02-21T01:17:13.814Z,11.00
2023-02-21T01:20:00.959Z,12.18
2023-02-21T01:22:47.233Z,9.38
2023-02-21T01:25:33.317Z,10.20
2023-02-21T01:28:18.471Z,11.98
2023-02-21T01:31:03.601Z,10.38
2023-02-21T01:33:54.007Z,10.75
2023-02-21T01:36:39.117Z,10.25
2023-02-21T01:39:24.339Z,9.23
2023-02-21T01:42:11.117Z,9.98
2023-02-21T01:45:01.640Z,10.63
2023-02-21T01:47:47.754Z,10.57
2023-02-21T01:50:45.448Z,10.07
2023-02-21T01:53:39.869Z,9.15
2023-02-21T01:56:25.494Z,8.52
2023-02-21T01:59:14.176Z,8.02
2023-02-21T02:01:59.326Z,10.20
2023-02-21T02:04:44.476Z,9.38
2023-02-21T02:07:29.698Z,9.15
2023-02-21T02:10:15.078Z,7.70
2023-02-21T02:13:18.504Z,10.07
2023-02-21T02:16:24.643Z,9.75
2023-02-21T02:19:33.788Z,7.53
2023-02-21T02:22:32.157Z,8.52
2023-02-21T02:25:10.852Z,10.00
2023-02-21T02:28:09.826Z,9.32
2023-02-21T02:30:39.442Z,8.85
2023-02-21T02:33:34.959Z,8.60
2023-02-21T02:36:15.622Z,9.25
2023-02-21T02:38:59.913Z,10.77
2023-02-21T02:41:44.469Z,7.78
2023-02-21T02:44:19.666Z,9.35
2023-02-21T02:46:48.903Z,8.55
2023-02-21T02:49:25.202Z,7.93
2023-02-21T02:51:52.420Z,8.23
2023-02-21T02:54:21.784Z,8.90
2023-02-21T02:56:48.530Z,9.43
2023-02-21T02:59:22.586Z,9.20
2023-02-21T03:04:38.344Z,7.75
2023-02-21T03:07:30.014Z,7.10
2023-02-21T03:10:35.192Z,7.32
2023-02-21T03:13:28.857Z,8.63
2023-02-21T03:16:15.309Z,7.57
2023-02-21T03:18:47.990Z,7.90
2023-02-21T03:21:29.893Z,6.70
2023-02-21T03:24:01.684Z,9.02
2023-02-21T03:26:32.318Z,7.75
2023-02-21T03:29:12.618Z,6.88
2023-02-21T03:31:46.457Z,6.25
2023-02-21T03:34:13.238Z,7.72
2023-02-21T03:36:40.381Z,6.78
2023-02-21T03:39:07.969Z,7.82
2023-02-21T03:41:34.777Z,8.77
2023-02-21T03:44:01.250Z,6.80
2023-02-21T03:46:27.731Z,7.78
2023-02-21T03:48:54.155Z,5.75
2023-02-21T03:51:26.040Z,6.57
2023-02-21T03:53:53.560Z,4.88
2023-02-21T03:56:28.075Z,5.53
2023-02-21T03:59:12.943Z,5.57
2023-02-21T04:01:39.532Z,5.30
2023-02-21T04:04:06.054Z,4.75
2023-02-21T04:06:32.503Z,3.83
2023-02-21T04:08:59.700Z,5.30
2023-02-21T04:11:27.185Z,6.32
2023-02-21T04:13:53.964Z,4.20
2023-02-21T04:16:20.699Z,4.50
2023-02-21T04:18:49.302Z,4.25
2023-02-21T04:21:18.656Z,4.47
2023-02-21T04:23:45.674Z,4.15
2023-02-21T04:26:12.166Z,3.60
2023-02-21T04:28:44.789Z,2.97
2023-02-21T04:31:11.356Z,3.17
2023-02-21T04:33:37.786Z,3.45
2023-02-21T04:36:05.465Z,1.85
2023-02-21T04:38:38.017Z,2.00
2023-02-21T04:41:05.046Z,1.92
2023-02-21T04:43:31.760Z,1.20
2023-02-21T04:45:58.306Z,1.55
2023-02-21T04:48:25.357Z,1.95
2023-02-21T04:50:51.819Z,1.25
2023-02-21T04:53:18.355Z,2.08
2023-02-21T04:55:44.816Z,1.65
2023-02-21T04:58:11.232Z,1.13
2023-02-21T05:00:37.649Z,1.20
2023-02-21T05:03:04.083Z,1.10
2023-02-21T05:05:30.580Z,2.30
2023-02-21T05:07:57.020Z,0.80
2023-02-21T05:10:27.023Z,0.90
2023-02-21T05:15:24.031Z,0.88
2023-02-21T05:17:50.473Z,1.95
2023-02-21T05:20:17.092Z,1.58
2023-02-21T05:22:43.508Z,0.80
2023-02-21T05:25:22.267Z,1.80
2023-02-21T05:27:49.959Z,0.93
2023-02-21T05:30:18.702Z,1.35
2023-02-21T05:32:45.350Z,0.90
2023-02-21T05:35:13.835Z,1.20
2023-02-21T05:37:40.307Z,2.35
2023-02-21T05:40:07.642Z,1.10
2023-02-21T05:42:34.259Z,1.40
2023-02-21T05:45:02.306Z,1.27
2023-02-21T05:47:28.780Z,1.08
2023-02-21T05:49:55.378Z,1.35
2023-02-21T05:52:21.849Z,1.50
2023-02-21T05:54:48.298Z,0.77
2023-02-21T05:57:14.760Z,0.80
2023-02-21T05:59:41.236Z,1.10
2023-02-21T06:02:07.746Z,0.70
2023-02-21T06:04:34.209Z,1.00
2023-02-21T06:07:00.788Z,0.65
2023-02-21T06:09:27.296Z,1.10
2023-02-21T06:11:56.699Z,0.60
2023-02-21T06:14:24.060Z,1.38
2023-02-21T06:16:50.492Z,0.60
2023-02-21T06:19:18.774Z,2.50
2023-02-21T06:21:46.248Z,0.65
2023-02-21T06:24:13.066Z,0.95
2023-02-21T06:26:41.153Z,0.60
2023-02-21T06:29:08.020Z,0.80
2023-02-21T06:31:36.212Z,0.60
2023-02-21T06:34:03.067Z,0.60
2023-02-21T06:36:29.929Z,1.30
2023-02-21T06:38:57.411Z,0.60
2023-02-21T06:41:29.808Z,0.93
2023-02-21T06:43:58.343Z,0.60
2023-02-21T06:46:28.235Z,0.63
2023-02-21T06:48:55.023Z,0.70
2023-02-21T06:51:28.969Z,0.70
2023-02-21T06:53:56.333Z,1.00
2023-02-21T06:56:22.758Z,0.80
2023-02-21T06:58:49.191Z,0.95
2023-02-21T07:01:16.276Z,1.13
2023-02-21T07:03:44.294Z,0.68
2023-02-21T07:06:11.123Z,2.40
2023-02-21T07:08:37.966Z,1.10
2023-02-21T07:11:05.762Z,1.20
2023-02-21T07:13:32.456Z,1.63
2023-02-21T07:15:59.118Z,1.30
2023-02-21T07:18:25.638Z,1.35
2023-02-21T07:20:52.089Z,0.80
2023-02-21T07:23:18.566Z,1.67
2023-02-21T07:25:45.004Z,1.15
2023-02-21T07:28:12.263Z,1.25
2023-02-21T07:30:38.782Z,1.55
2023-02-21T07:33:05.339Z,2.25
2023-02-21T07:35:31.795Z,1.95
2023-02-21T07:37:58.237Z,1.77
2023-02-21T07:40:24.701Z,1.58
2023-02-21T07:42:51.193Z,1.45
2023-02-21T07:45:17.723Z,1.67
2023-02-21T07:47:47.874Z,1.58
2023-02-21T07:50:15.895Z,1.15
2023-02-21T07:52:42.353Z,1.00
2023-02-21T07:55:08.882Z,3.33
2023-02-21T07:57:35.765Z,1.80
2023-02-21T08:00:02.685Z,2.10
2023-02-21T08:02:39.450Z,3.08
2023-02-21T08:05:07.284Z,1.25
2023-02-21T08:07:33.868Z,1.88
2023-02-21T08:10:00.332Z,2.10
2023-02-21T08:12:26.753Z,0.70
2023-02-21T08:14:53.251Z,1.23
2023-02-21T08:17:19.674Z,1.08
2023-02-21T08:19:46.136Z,0.73
2023-02-21T08:22:12.667Z,2.75
2023-02-21T08:24:39.149Z,1.73
2023-02-21T08:27:05.921Z,1.83
2023-02-21T08:29:32.397Z,1.52
2023-02-21T08:31:58.907Z,2.88
2023-02-21T08:34:25.446Z,1.98
2023-02-21T08:36:51.914Z,0.77
2023-02-21T08:39:18.365Z,3.78
2023-02-21T08:41:48.584Z,1.42
2023-02-21T08:44:17.228Z,2.05
2023-02-21T08:46:44.626Z,1.27
2023-02-21T08:49:11.360Z,2.67
2023-02-21T08:51:38.282Z,1.83
2023-02-21T08:54:04.807Z,1.50
2023-02-21T08:56:31.973Z,1.95
2023-02-21T08:58:58.585Z,1.90
2023-02-21T09:01:30.541Z,3.08
2023-02-21T09:03:57.025Z,3.80
2023-02-21T09:06:23.561Z,2.25
2023-02-21T09:08:50.000Z,3.50
2023-02-21T09:11:16.670Z,3.17
2023-02-21T09:13:43.393Z,2.33
2023-02-21T09:16:10.003Z,3.40
2023-02-21T09:18:36.450Z,1.85
2023-02-21T09:21:03.061Z,2.45
2023-02-21T09:23:30.613Z,2.60
2023-02-21T09:25:58.434Z,2.22
2023-02-21T09:28:24.995Z,1.42
2023-02-21T09:30:51.553Z,1.95
2023-02-21T09:33:18.497Z,3.53
2023-02-21T09:35:44.864Z,2.13
2023-02-21T09:38:11.350Z,2.75
2023-02-21T09:40:45.574Z,3.80
2023-02-21T09:43:16.283Z,3.30
2023-02-21T09:45:44.621Z,3.38
2023-02-21T09:48:19.078Z,2.25
2023-02-21T09:50:51.639Z,2.83
2023-02-21T09:53:26.370Z,1.70
2023-02-21T09:55:58.929Z,1.73
2023-02-21T09:58:25.627Z,1.42
2023-02-21T10:00:52.364Z,2.67
2023-02-21T10:03:38.844Z,2.65
2023-02-21T10:06:15.727Z,3.53
2023-02-21T10:09:24.120Z,4.13
2023-02-21T10:12:25.240Z,13.40
2023-02-21T10:15:14.465Z,13.55
2023-02-21T10:18:05.476Z,6.15
2023-02-21T10:20:55.690Z,5.78
2023-02-21T10:23:29.632Z,3.10
2023-02-21T10:26:03.358Z,6.95
2023-02-21T10:28:29.837Z,6.65
2023-02-21T10:31:00.380Z,4.50
2023-02-21T10:33:27.192Z,3.17
2023-02-21T10:35:55.088Z,5.13
2023-02-21T10:38:26.014Z,8.70
2023-02-21T10:40:57.232Z,10.95
2023-02-21T10:43:41.705Z,7.00
2023-02-21T10:46:21.237Z,10.40
2023-02-21T10:48:52.438Z,7.40
2023-02-21T10:51:35.495Z,10.60
2023-02-21T10:54:22.806Z,7.88
2023-02-21T10:56:52.494Z,9.98
2023-02-21T10:59:23.545Z,6.63
2023-02-21T11:01:50.937Z,14.93
2023-02-21T11:04:20.428Z,9.02
2023-02-21T11:06:50.772Z,9.70
2023-02-21T11:09:39.537Z,11.98
2023-02-21T11:12:26.838Z,11.35
2023-02-21T11:14:53.354Z,9.75
2023-02-21T11:17:22.238Z,9.00
2023-02-21T11:20:07.974Z,10.35
2023-02-21T11:22:34.945Z,11.45
2023-02-21T11:25:22.847Z,11.07
2023-02-21T11:28:14.784Z,7.97
2023-02-21T11:30:51.865Z,7.78
2023-02-21T11:33:21.285Z,11.98
2023-02-21T11:35:50.437Z,7.78
2023-02-21T11:38:32.688Z,7.10
2023-02-21T11:41:00.562Z,14.10
2023-02-21T11:43:33.551Z,8.20
2023-02-21T11:46:12.586Z,7.35
2023-02-21T11:48:49.354Z,11.15
2023-02-21T11:51:41.874Z,10.85
2023-02-21T11:54:08.591Z,9.55
2023-02-21T11:56:58.139Z,7.55
2023-02-21T11:59:38.006Z,7.47
2023-02-21T12:02:07.402Z,8.35
2023-02-21T12:05:28.359Z,8.65
2023-02-21T12:08:25.873Z,9.88
2023-02-21T12:11:10.578Z,5.45
2023-02-21T12:13:58.596Z,7.35
2023-02-21T12:16:46.098Z,5.00
2023-02-21T12:19:21.440Z,4.22
2023-02-21T12:22:14.217Z,5.35
2023-02-21T12:24:55.901Z,4.97
2023-02-21T12:27:46.453Z,3.35
2023-02-21T12:30:40.776Z,3.42
2023-02-21T12:33:21.169Z,4.63
2023-02-21T12:36:20.235Z,2.88
2023-02-21T12:39:02.039Z,2.15
2023-02-21T12:41:48.396Z,2.28
2023-02-21T12:44:21.874Z,3.35
2023-02-21T12:46:55.693Z,1.35
2023-02-21T12:49:28.345Z,1.88
2023-02-21T12:52:00.559Z,3.13
2023-02-21T12:54:44.451Z,3.33
2023-02-21T12:57:14.819Z,2.30
2023-02-21T12:59:59.443Z,1.25
2023-02-21T13:02:57.108Z,1.92
2023-02-21T13:05:34.369Z,3.13
2023-02-21T13:08:15.545Z,0.90
2023-02-21T13:11:06.350Z,0.93
2023-02-21T13:13:33.976Z,0.73
2023-02-21T13:16:07.826Z,0.77
2023-02-21T13:18:39.301Z,0.70
2023-02-21T13:21:34.983Z,0.70
2023-02-21T13:24:08.966Z,0.60
2023-02-21T13:27:13.086Z,0.98
2023-02-21T13:29:42.432Z,1.52
2023-02-21T13:32:17.030Z,1.05
2023-02-21T13:34:48.433Z,0.80
2023-02-21T13:37:26.825Z,0.88
2023-02-21T13:40:06.517Z,1.20
2023-02-21T13:42:36.284Z,2.05
2023-02-21T13:45:13.083Z,1.52
2023-02-21T13:47:57.574Z,1.20
2023-02-21T13:50:46.401Z,1.27
2023-02-21T13:53:22.346Z,1.42
2023-02-21T13:56:09.035Z,0.70
2023-02-21T13:58:44.861Z,1.17
2023-02-21T14:01:40.748Z,1.10
2023-02-21T14:05:01.797Z,1.55
2023-02-21T14:07:50.121Z,1.27
2023-02-21T14:10:44.321Z,1.65
2023-02-21T14:13:21.733Z,1.35
2023-02-21T14:15:56.584Z,1.65
2023-02-21T14:18:30.501Z,1.70
2023-02-21T14:20:58.377Z,0.75
2023-02-21T14:23:36.948Z,2.05
2023-02-21T14:26:04.848Z,1.05
2023-02-21T14:28:51.225Z,0.98
2023-02-21T14:31:58.092Z,0.73
2023-02-21T14:34:39.307Z,1.38
2023-02-21T14:37:16.800Z,1.23
2023-02-21T14:39:47.428Z,1.00
2023-02-21T14:42:51.495Z,1.35
2023-02-21T14:45:36.294Z,0.93
2023-02-21T14:48:34.306Z,1.17
2023-02-21T14:51:38.376Z,1.60
2023-02-21T14:54:45.709Z,1.10
2023-02-21T14:57:24.029Z,0.60
2023-02-21T15:00:16.252Z,1.00
2023-02-21T15:02:52.757Z,0.73
2023-02-21T15:05:40.446Z,2.80
2023-02-21T15:08:16.131Z,4.30
2023-02-21T15:10:45.217Z,3.53
2023-02-21T15:13:20.682Z,5.28
2023-02-21T15:15:47.299Z,3.28
2023-02-21T15:18:37.052Z,6.47
2023-02-21T15:21:11.593Z,6.43
2023-02-21T15:23:40.114Z,7.40
2023-02-21T15:26:29.687Z,4.22
2023-02-21T15:29:13.772Z,5.25
2023-02-21T15:31:47.758Z,5.57
2023-02-21T15:34:31.983Z,6.90
2023-02-21T15:37:19.304Z,5.90
2023-02-21T15:39:54.548Z,3.45
2023-02-21T15:42:23.731Z,7.15
2023-02-21T15:44:58.786Z,9.70
2023-02-21T15:47:30.364Z,4.70
2023-02-21T15:50:13.731Z,6.40
2023-02-21T15:52:51.211Z,5.10
2023-02-21T15:55:21.207Z,5.03
2023-02-21T15:57:58.081Z,7.97
2023-02-21T16:00:28.259Z,6.43
2023-02-21T16:03:25.761Z,6.18
2023-02-21T16:05:52.912Z,8.73
2023-02-21T16:08:19.401Z,6.13
2023-02-21T16:10:45.946Z,5.32
2023-02-21T16:13:12.812Z,7.53
2023-02-21T16:15:40.758Z,5.95
2023-02-21T16:18:09.578Z,5.55
2023-02-21T16:20:38.705Z,5.32
2023-02-21T16:23:20.386Z,6.95
2023-02-21T16:25:55.896Z,5.22
2023-02-21T16:28:22.406Z,6.50
2023-02-21T16:30:49.271Z,7.28
2023-02-21T16:33:17.506Z,5.38
2023-02-21T16:35:44.187Z,6.30
2023-02-21T16:38:15.547Z,5.30
2023-02-21T16:40:42.120Z,3.50
2023-02-21T16:43:16.949Z,5.28
2023-02-21T16:45:43.509Z,5.72
2023-02-21T16:48:16.321Z,8.90
2023-02-21T16:50:43.947Z,6.05
2023-02-21T16:53:15.281Z,4.28
2023-02-21T16:55:42.629Z,4.60
2023-02-21T16:58:25.974Z,3.22
2023-02-21T17:00:55.098Z,6.82
2023-02-21T17:03:21.639Z,6.75
2023-02-21T17:05:49.960Z,6.35
2023-02-21T17:08:16.381Z,4.40
2023-02-21T17:10:42.896Z,6.15
2023-02-21T17:13:09.335Z,8.10
2023-02-21T17:15:35.877Z,6.75
2023-02-21T17:18:02.904Z,6.35
2023-02-21T17:20:29.800Z,5.68
2023-02-21T17:22:58.369Z,3.53
2023-02-21T17:25:25.670Z,6.07
2023-02-21T17:27:52.483Z,5.45
2023-02-21T17:30:21.097Z,8.35
2023-02-21T17:32:47.731Z,7.25
2023-02-21T17:35:15.751Z,4.55
2023-02-21T17:37:43.523Z,10.88
2023-02-21T17:40:11.378Z,6.45
2023-02-21T17:42:39.546Z,7.75
2023-02-21T17:45:06.827Z,7.13
2023-02-21T17:47:35.275Z,10.05
2023-02-21T17:50:03.717Z,8.80
2023-02-21T17:52:31.035Z,8.55
2023-02-21T17:54:57.766Z,9.23
2023-02-21T17:57:24.296Z,10.23
2023-02-21T17:59:50.726Z,9.25
2023-02-21T18:02:19.287Z,10.35
2023-02-21T18:04:48.652Z,11.73
2023-02-21T18:07:15.163Z,12.15
2023-02-21T18:09:41.705Z,8.73
2023-02-21T18:12:08.323Z,10.68
2023-02-21T18:14:35.000Z,8.93
2023-02-21T18:17:02.863Z,10.25
2023-02-21T18:19:31.026Z,11.55
2023-02-21T18:21:58.178Z,8.65
2023-02-21T18:24:26.718Z,11.13
2023-02-21T18:26:53.440Z,10.75
2023-02-21T18:29:21.731Z,8.77
2023-02-21T18:31:55.786Z,7.75
2023-02-21T18:34:23.329Z,10.98
2023-02-21T18:36:52.090Z,10.82
2023-02-21T18:39:21.512Z,10.27
2023-02-21T18:41:48.700Z,10.80
2023-02-21T18:44:15.336Z,11.85
2023-02-21T18:46:50.313Z,9.95
2023-02-21T18:49:17.175Z,9.63
2023-02-21T18:51:44.088Z,10.98
2023-02-21T18:54:10.570Z,9.02
2023-02-21T18:56:37.004Z,9.93
2023-02-21T18:59:03.651Z,8.95
2023-02-21T19:01:31.002Z,10.10
2023-02-21T19:03:57.659Z,8.75
2023-02-21T19:06:25.780Z,10.52
2023-02-21T19:08:54.201Z,10.00
2023-02-21T19:11:21.048Z,9.38
2023-02-21T19:13:49.807Z,9.13
2023-02-21T19:16:19.477Z,10.60
2023-02-21T19:18:47.217Z,12.88
2023-02-21T19:21:14.610Z,8.98
2023-02-21T19:23:42.574Z,9.75
2023-02-21T19:26:09.308Z,10.18
2023-02-21T19:28:39.072Z,10.18
2023-02-21T19:31:08.042Z,12.05
2023-02-21T19:33:35.244Z,10.73
2023-02-21T19:36:06.086Z,10.35
2023-02-21T19:38:32.661Z,12.07
2023-02-21T19:40:59.326Z,9.57
2023-02-21T19:43:26.193Z,10.82
2023-02-21T19:45:52.848Z,10.57
2023-02-21T19:48:21.377Z,12.77
2023-02-21T19:50:48.840Z,11.68
2023-02-21T19:53:15.528Z,12.02
2023-02-21T19:55:42.130Z,10.10
2023-02-21T19:58:09.258Z,10.70
2023-02-21T20:00:37.791Z,10.77
2023-02-21T20:03:04.408Z,11.50
2023-02-21T20:05:33.859Z,11.65
2023-02-21T20:08:10.279Z,11.93
2023-02-21T20:10:52.715Z,11.90
2023-02-21T20:13:40.200Z,11.73
2023-02-21T20:16:18.448Z,11.87
2023-02-21T20:18:45.424Z,12.23
2023-02-21T20:21:23.901Z,11.98
2023-02-21T20:23:51.654Z,12.02
2023-02-21T20:26:18.427Z,11.50
2023-02-21T20:28:47.769Z,13.65
2023-02-21T20:31:15.321Z,13.73
2023-02-21T20:33:42.396Z,12.85
2023-02-21T20:36:09.762Z,12.35
2023-02-21T20:38:48.567Z,14.00
2023-02-21T20:41:38.766Z,13.60
2023-02-21T20:44:05.588Z,12.52
2023-02-21T20:46:34.942Z,12.48
2023-02-21T20:49:03.124Z,13.15
2023-02-21T20:51:38.870Z,15.13
2023-02-21T20:54:06.123Z,15.55
2023-02-21T20:56:39.498Z,12.82
2023-02-21T20:59:15.687Z,11.18
2023-02-21T21:01:48.331Z,12.65
2023-02-21T21:04:21.732Z,12.68
2023-02-21T21:06:48.690Z,13.32
2023-02-21T21:09:17.747Z,12.70
2023-02-21T21:11:45.144Z,13.00
2023-02-21T21:14:13.393Z,11.52
2023-02-21T21:16:41.973Z,12.98
2023-02-21T21:19:08.858Z,12.23
2023-02-21T21:21:37.742Z,11.93
2023-02-21T21:24:07.063Z,11.82
2023-02-21T21:26:34.024Z,11.63
2023-02-21T21:29:01.372Z,12.20
2023-02-21T21:31:27.934Z,13.60
2023-02-21T21:33:56.295Z,13.85
2023-02-21T21:36:23.361Z,10.73
2023-02-21T21:38:49.797Z,11.95
2023-02-21T21:41:16.957Z,11.88
2023-02-21T21:43:45.441Z,10.88
2023-02-21T21:46:13.541Z,12.80
2023-02-21T21:48:44.614Z,12.15
2023-02-21T21:51:13.935Z,11.73
2023-02-21T21:53:41.462Z,13.38
2023-02-21T21:56:08.446Z,13.70
2023-02-21T21:58:35.946Z,12.98
2023-02-21T22:01:05.388Z,13.38
2023-02-21T22:03:32.852Z,13.63
2023-02-21T22:06:00.750Z,13.90
2023-02-21T22:08:28.861Z,13.38
2023-02-21T22:10:56.572Z,14.07
2023-02-21T22:13:28.889Z,13.85
2023-02-21T22:15:56.205Z,15.13
2023-02-21T22:18:24.473Z,13.70
2023-02-21T22:20:51.580Z,13.38
2023-02-21T22:23:24.437Z,14.65
2023-02-21T22:25:52.217Z,15.05
2023-02-21T22:28:19.495Z,14.10
2023-02-21T22:30:46.431Z,13.48
2023-02-21T22:33:19.725Z,13.75
2023-02-21T22:35:50.134Z,14.70
2023-02-21T22:38:44.069Z,14.43
2023-02-21T22:41:22.444Z,16.10
2023-02-21T22:43:50.633Z,15.40
2023-02-21T22:46:23.132Z,13.48
2023-02-21T22:48:55.424Z,15.43
2023-02-21T22:51:41.051Z,14.43
2023-02-21T22:54:43.310Z,13.25
2023-02-21T23:04:31.036Z,14.07
2023-02-21T23:06:59.547Z,15.85
2023-02-21T23:09:35.954Z,15.25
2023-02-21T23:12:03.955Z,15.35
2023-02-21T23:14:37.339Z,13.13
2023-02-21T23:17:18.593Z,12.80
2023-02-21T23:19:53.373Z,13.45
2023-02-21T23:22:33.352Z,14.60
2023-02-21T23:25:27.023Z,13.13
2023-02-21T23:28:19.351Z,13.88
2023-02-21T23:30:56.219Z,12.77
2023-02-21T23:36:41.000Z,13.90
2023-02-21T23:39:17.282Z,13.18
2023-02-21T23:41:51.304Z,15.32
2023-02-21T23:48:31.262Z,16.27
2023-02-21T23:58:32.704Z,14.93
